sensor_id;sensor_type;location;lat;lon;timestamp;P1;durP1;ratioP1;P2;durP2;ratioP2
70725;SDS011;58304;53.104;6.022;2022-09-29T16:11:04;2.63;;;0.90;;
70725;SDS011;58304;53.104;6.022;2022-09-29T16:13:37;2.08;;;1.00;;
70725;SDS011;58304;53.104;6.022;2022-09-29T16:16:06;3.72;;;0.90;;
70725;SDS011;58304;53.104;6.022;2022-09-29T16:18:40;1.70;;;0.90;;
70725;SDS011;58304;53.104;6.022;2022-09-29T16:21:10;1.42;;;0.75;;
70725;SDS011;58304;53.104;6.022;2022-09-29T16:23:51;1.75;;;0.70;;
70725;SDS011;58304;53.104;6.022;2022-09-29T16:31:33;1.30;;;0.55;;
70725;SDS011;58304;53.104;6.022;2022-09-29T16:34:00;2.40;;;0.60;;
70725;SDS011;58304;53.104;6.022;2022-09-29T16:36:32;4.28;;;0.70;;
70725;SDS011;58304;53.104;6.022;2022-09-29T16:39:04;2.85;;;0.60;;
70725;SDS011;58304;53.104;6.022;2022-09-29T16:41:34;2.15;;;0.50;;
70725;SDS011;58304;53.104;6.022;2022-09-29T16:49:21;0.60;;;0.60;;
70725;SDS011;58304;53.104;6.022;2022-09-29T16:51:50;1.92;;;0.60;;
70725;SDS011;58304;53.104;6.022;2022-09-29T16:54:19;0.90;;;0.60;;
70725;SDS011;58304;53.104;6.022;2022-09-29T16:59:55;2.25;;;0.70;;
70725;SDS011;58304;53.104;6.022;2022-09-29T17:02:23;1.15;;;0.60;;
70725;SDS011;58304;53.104;6.022;2022-09-29T17:04:50;2.08;;;0.60;;
70725;SDS011;58304;53.104;6.022;2022-09-29T17:07:16;1.10;;;0.60;;
70725;SDS011;58304;53.104;6.022;2022-09-29T17:09:44;1.30;;;0.70;;
70725;SDS011;58304;53.104;6.022;2022-09-29T17:12:12;2.50;;;0.60;;
70725;SDS011;58304;53.104;6.022;2022-09-29T17:14:38;1.95;;;0.70;;
70725;SDS011;58304;53.104;6.022;2022-09-29T17:17:04;3.17;;;1.63;;
70725;SDS011;58304;53.104;6.022;2022-09-29T17:19:29;5.43;;;0.50;;
70725;SDS011;58304;53.104;6.022;2022-09-29T17:21:55;2.15;;;0.60;;
70725;SDS011;58304;53.104;6.022;2022-09-29T17:24:21;0.80;;;0.50;;
70725;SDS011;58304;53.104;6.022;2022-09-29T17:26:47;1.35;;;0.60;;
70725;SDS011;58304;53.104;6.022;2022-09-29T17:29:31;0.70;;;0.43;;
70725;SDS011;58304;53.104;6.022;2022-09-29T17:31:57;1.17;;;0.50;;
70725;SDS011;58304;53.104;6.022;2022-09-29T17:34:23;1.23;;;0.50;;
70725;SDS011;58304;53.104;6.022;2022-09-29T17:36:57;1.23;;;0.50;;
70725;SDS011;58304;53.104;6.022;2022-09-29T17:39:26;0.55;;;0.40;;
70725;SDS011;58304;53.104;6.022;2022-09-29T17:41:52;2.03;;;0.40;;
70725;SDS011;58304;53.104;6.022;2022-09-29T17:44:18;0.57;;;0.50;;
70725;SDS011;58304;53.104;6.022;2022-09-29T17:46:43;0.57;;;0.40;;
70725;SDS011;58304;53.104;6.022;2022-09-29T17:49:13;1.20;;;0.70;;
70725;SDS011;58304;53.104;6.022;2022-09-29T17:51:41;0.95;;;0.60;;
70725;SDS011;58304;53.104;6.022;2022-09-29T17:54:10;1.20;;;0.60;;
70725;SDS011;58304;53.104;6.022;2022-09-29T17:56:38;1.00;;;0.60;;
70725;SDS011;58304;53.104;6.022;2022-09-29T17:59:06;1.42;;;0.60;;
70725;SDS011;58304;53.104;6.022;2022-09-29T18:01:34;1.83;;;0.70;;
70725;SDS011;58304;53.104;6.022;2022-09-29T18:04:00;1.83;;;0.73;;
70725;SDS011;58304;53.104;6.022;2022-09-29T18:06:26;1.50;;;0.82;;
70725;SDS011;58304;53.104;6.022;2022-09-29T18:08:53;2.83;;;0.93;;
70725;SDS011;58304;53.104;6.022;2022-09-29T18:11:20;1.48;;;0.65;;
70725;SDS011;58304;53.104;6.022;2022-09-29T18:13:47;1.35;;;0.80;;
70725;SDS011;58304;53.104;6.022;2022-09-29T18:16:14;1.27;;;0.70;;
70725;SDS011;58304;53.104;6.022;2022-09-29T18:18:42;1.75;;;0.90;;
70725;SDS011;58304;53.104;6.022;2022-09-29T18:21:08;1.45;;;0.77;;
70725;SDS011;58304;53.104;6.022;2022-09-29T18:23:35;1.23;;;0.70;;
70725;SDS011;58304;53.104;6.022;2022-09-29T18:26:01;1.20;;;0.70;;
70725;SDS011;58304;53.104;6.022;2022-09-29T18:28:27;3.25;;;0.80;;
70725;SDS011;58304;53.104;6.022;2022-09-29T18:30:54;1.80;;;0.90;;
70725;SDS011;58304;53.104;6.022;2022-09-29T18:33:30;2.15;;;0.90;;
70725;SDS011;58304;53.104;6.022;2022-09-29T18:35:56;3.35;;;0.90;;
70725;SDS011;58304;53.104;6.022;2022-09-29T18:38:24;1.73;;;0.80;;
70725;SDS011;58304;53.104;6.022;2022-09-29T18:40:50;1.77;;;0.75;;
70725;SDS011;58304;53.104;6.022;2022-09-29T18:43:18;1.80;;;0.77;;
70725;SDS011;58304;53.104;6.022;2022-09-29T18:45:45;2.50;;;0.80;;
70725;SDS011;58304;53.104;6.022;2022-09-29T18:48:13;1.45;;;0.80;;
70725;SDS011;58304;53.104;6.022;2022-09-29T18:50:40;1.88;;;0.70;;
70725;SDS011;58304;53.104;6.022;2022-09-29T18:53:11;1.90;;;0.80;;
70725;SDS011;58304;53.104;6.022;2022-09-29T18:55:39;1.35;;;0.70;;
70725;SDS011;58304;53.104;6.022;2022-09-29T18:58:11;1.50;;;0.90;;
70725;SDS011;58304;53.104;6.022;2022-09-29T19:00:38;1.50;;;0.80;;
70725;SDS011;58304;53.104;6.022;2022-09-29T19:03:07;1.42;;;0.82;;
70725;SDS011;58304;53.104;6.022;2022-09-29T19:05:33;1.25;;;0.60;;
70725;SDS011;58304;53.104;6.022;2022-09-29T19:08:01;1.90;;;0.90;;
70725;SDS011;58304;53.104;6.022;2022-09-29T19:10:29;1.67;;;0.90;;
70725;SDS011;58304;53.104;6.022;2022-09-29T19:13:10;2.28;;;0.90;;
70725;SDS011;58304;53.104;6.022;2022-09-29T19:15:38;1.40;;;0.80;;
70725;SDS011;58304;53.104;6.022;2022-09-29T19:18:05;1.60;;;0.85;;
70725;SDS011;58304;53.104;6.022;2022-09-29T19:20:32;1.77;;;1.00;;
70725;SDS011;58304;53.104;6.022;2022-09-29T19:22:58;2.58;;;0.90;;
70725;SDS011;58304;53.104;6.022;2022-09-29T19:25:27;1.50;;;0.90;;
70725;SDS011;58304;53.104;6.022;2022-09-29T19:27:55;2.60;;;0.80;;
70725;SDS011;58304;53.104;6.022;2022-09-29T19:30:22;3.47;;;1.00;;
70725;SDS011;58304;53.104;6.022;2022-09-29T19:32:50;3.38;;;0.90;;
70725;SDS011;58304;53.104;6.022;2022-09-29T19:35:17;2.78;;;1.02;;
70725;SDS011;58304;53.104;6.022;2022-09-29T19:37:45;2.58;;;0.90;;
70725;SDS011;58304;53.104;6.022;2022-09-29T19:40:13;2.40;;;1.05;;
70725;SDS011;58304;53.104;6.022;2022-09-29T19:42:47;2.65;;;1.00;;
70725;SDS011;58304;53.104;6.022;2022-09-29T19:45:14;2.40;;;1.13;;
70725;SDS011;58304;53.104;6.022;2022-09-29T19:47:40;2.67;;;1.23;;
70725;SDS011;58304;53.104;6.022;2022-09-29T19:50:06;2.40;;;1.33;;
70725;SDS011;58304;53.104;6.022;2022-09-29T19:52:51;2.42;;;1.13;;
70725;SDS011;58304;53.104;6.022;2022-09-29T19:55:17;1.70;;;1.00;;
70725;SDS011;58304;53.104;6.022;2022-09-29T19:57:43;2.00;;;1.10;;
70725;SDS011;58304;53.104;6.022;2022-09-29T20:00:10;2.38;;;1.10;;
70725;SDS011;58304;53.104;6.022;2022-09-29T20:02:40;2.95;;;1.00;;
70725;SDS011;58304;53.104;6.022;2022-09-29T20:05:08;2.08;;;1.00;;
70725;SDS011;58304;53.104;6.022;2022-09-29T20:07:35;2.67;;;0.82;;
70725;SDS011;58304;53.104;6.022;2022-09-29T20:10:05;1.92;;;1.00;;
70725;SDS011;58304;53.104;6.022;2022-09-29T20:12:32;2.10;;;0.93;;
70725;SDS011;58304;53.104;6.022;2022-09-29T20:14:58;1.38;;;0.80;;
70725;SDS011;58304;53.104;6.022;2022-09-29T20:17:24;2.63;;;1.02;;
70725;SDS011;58304;53.104;6.022;2022-09-29T20:19:50;2.35;;;1.10;;
70725;SDS011;58304;53.104;6.022;2022-09-29T20:22:16;2.80;;;1.10;;
70725;SDS011;58304;53.104;6.022;2022-09-29T20:24:44;2.85;;;1.10;;
70725;SDS011;58304;53.104;6.022;2022-09-29T20:27:10;2.30;;;1.10;;
70725;SDS011;58304;53.104;6.022;2022-09-29T20:29:36;1.70;;;1.00;;
70725;SDS011;58304;53.104;6.022;2022-09-29T20:32:02;1.17;;;0.70;;
70725;SDS011;58304;53.104;6.022;2022-09-29T20:34:29;0.77;;;0.57;;
70725;SDS011;58304;53.104;6.022;2022-09-29T20:36:56;2.10;;;0.75;;
70725;SDS011;58304;53.104;6.022;2022-09-29T20:39:22;2.28;;;1.00;;
70725;SDS011;58304;53.104;6.022;2022-09-29T20:41:49;1.90;;;1.10;;
70725;SDS011;58304;53.104;6.022;2022-09-29T20:44:17;3.53;;;1.00;;
70725;SDS011;58304;53.104;6.022;2022-09-29T20:46:47;2.20;;;1.00;;
70725;SDS011;58304;53.104;6.022;2022-09-29T20:49:14;3.97;;;1.30;;
70725;SDS011;58304;53.104;6.022;2022-09-29T20:51:39;6.05;;;1.48;;
70725;SDS011;58304;53.104;6.022;2022-09-29T20:54:05;2.70;;;1.20;;
70725;SDS011;58304;53.104;6.022;2022-09-29T20:56:30;3.05;;;1.45;;
70725;SDS011;58304;53.104;6.022;2022-09-29T20:59:00;2.88;;;1.50;;
70725;SDS011;58304;53.104;6.022;2022-09-29T21:01:27;3.55;;;1.45;;
70725;SDS011;58304;53.104;6.022;2022-09-29T21:03:58;2.92;;;1.45;;
70725;SDS011;58304;53.104;6.022;2022-09-29T21:06:27;2.50;;;1.38;;
70725;SDS011;58304;53.104;6.022;2022-09-29T21:08:56;2.90;;;1.20;;
70725;SDS011;58304;53.104;6.022;2022-09-29T21:11:22;2.08;;;1.10;;
70725;SDS011;58304;53.104;6.022;2022-09-29T21:13:48;2.28;;;1.10;;
70725;SDS011;58304;53.104;6.022;2022-09-29T21:16:15;3.22;;;1.50;;
70725;SDS011;58304;53.104;6.022;2022-09-29T21:18:42;3.65;;;1.45;;
70725;SDS011;58304;53.104;6.022;2022-09-29T21:21:07;5.38;;;1.60;;
70725;SDS011;58304;53.104;6.022;2022-09-29T21:23:34;2.78;;;1.55;;
70725;SDS011;58304;53.104;6.022;2022-09-29T21:26:12;2.40;;;1.48;;
70725;SDS011;58304;53.104;6.022;2022-09-29T21:28:40;3.47;;;1.52;;
70725;SDS011;58304;53.104;6.022;2022-09-29T21:31:10;2.55;;;1.50;;
70725;SDS011;58304;53.104;6.022;2022-09-29T21:33:38;4.90;;;1.58;;
70725;SDS011;58304;53.104;6.022;2022-09-29T21:36:06;2.83;;;1.45;;
70725;SDS011;58304;53.104;6.022;2022-09-29T21:38:34;3.72;;;1.70;;
70725;SDS011;58304;53.104;6.022;2022-09-29T21:41:03;2.97;;;1.60;;
70725;SDS011;58304;53.104;6.022;2022-09-29T21:43:31;4.72;;;1.80;;
70725;SDS011;58304;53.104;6.022;2022-09-29T21:46:01;2.60;;;1.65;;
70725;SDS011;58304;53.104;6.022;2022-09-29T21:48:28;3.40;;;1.50;;
70725;SDS011;58304;53.104;6.022;2022-09-29T21:51:06;2.50;;;1.42;;
70725;SDS011;58304;53.104;6.022;2022-09-29T21:53:33;2.80;;;1.60;;
70725;SDS011;58304;53.104;6.022;2022-09-29T21:56:04;2.80;;;1.40;;
70725;SDS011;58304;53.104;6.022;2022-09-29T21:58:32;2.22;;;1.20;;
70725;SDS011;58304;53.104;6.022;2022-09-29T22:00:58;3.00;;;1.80;;
70725;SDS011;58304;53.104;6.022;2022-09-29T22:05:50;31.23;;;1.92;;
70725;SDS011;58304;53.104;6.022;2022-09-29T22:08:16;1.77;;;1.08;;
70725;SDS011;58304;53.104;6.022;2022-09-29T22:13:10;3.50;;;1.30;;
70725;SDS011;58304;53.104;6.022;2022-09-29T22:18:01;2.28;;;1.30;;
70725;SDS011;58304;53.104;6.022;2022-09-29T22:20:27;2.78;;;1.33;;
70725;SDS011;58304;53.104;6.022;2022-09-29T22:25:18;1.95;;;1.30;;
70725;SDS011;58304;53.104;6.022;2022-09-29T22:30:10;2.08;;;1.30;;
70725;SDS011;58304;53.104;6.022;2022-09-29T22:32:36;3.00;;;1.50;;
70725;SDS011;58304;53.104;6.022;2022-09-29T22:35:02;3.35;;;1.75;;
70725;SDS011;58304;53.104;6.022;2022-09-29T22:37:28;2.33;;;1.50;;
70725;SDS011;58304;53.104;6.022;2022-09-29T22:42:19;2.38;;;1.25;;
70725;SDS011;58304;53.104;6.022;2022-09-29T22:44:44;4.13;;;0.90;;
70725;SDS011;58304;53.104;6.022;2022-09-29T22:49:35;6.53;;;0.90;;
70725;SDS011;58304;53.104;6.022;2022-09-29T22:52:01;0.90;;;0.60;;
70725;SDS011;58304;53.104;6.022;2022-09-29T22:56:53;3.25;;;0.70;;
70725;SDS011;58304;53.104;6.022;2022-09-29T23:01:44;2.45;;;0.70;;
70725;SDS011;58304;53.104;6.022;2022-09-29T23:04:11;0.68;;;0.55;;
70725;SDS011;58304;53.104;6.022;2022-09-29T23:06:37;1.50;;;0.80;;
70725;SDS011;58304;53.104;6.022;2022-09-29T23:11:28;1.55;;;1.00;;
70725;SDS011;58304;53.104;6.022;2022-09-29T23:13:55;35.28;;;1.50;;
70725;SDS011;58304;53.104;6.022;2022-09-29T23:18:50;1.40;;;0.90;;
70725;SDS011;58304;53.104;6.022;2022-09-29T23:21:17;1.25;;;0.60;;
70725;SDS011;58304;53.104;6.022;2022-09-29T23:26:09;1.27;;;0.80;;
70725;SDS011;58304;53.104;6.022;2022-09-29T23:31:01;2.15;;;0.80;;
70725;SDS011;58304;53.104;6.022;2022-09-29T23:33:29;1.10;;;0.70;;
70725;SDS011;58304;53.104;6.022;2022-09-29T23:38:27;0.70;;;0.60;;
70725;SDS011;58304;53.104;6.022;2022-09-29T23:41:12;4.05;;;0.70;;
70725;SDS011;58304;53.104;6.022;2022-09-29T23:46:06;26.17;;;1.10;;
70725;SDS011;58304;53.104;6.022;2022-09-29T23:48:32;3.65;;;0.68;;
70725;SDS011;58304;53.104;6.022;2022-09-29T23:55:49;5.75;;;0.90;;
